createdAt,value
2018-04-02T00:00:20.846Z,59.05
2018-04-02T00:00:52.478Z,59.13
2018-04-02T00:01:24.106Z,59.10
2018-04-02T00:01:55.730Z,59.15
2018-04-02T00:02:27.357Z,59.17
2018-04-02T00:02:58.986Z,59.21
2018-04-02T00:03:30.610Z,59.21
2018-04-02T00:04:02.239Z,59.28
2018-04-02T00:04:33.870Z,59.35
2018-04-02T00:05:05.499Z,59.43
2018-04-02T00:05:37.170Z,59.39
2018-04-02T00:06:08.794Z,59.41
2018-04-02T00:06:40.418Z,59.42
2018-04-02T00:07:12.042Z,59.50
2018-04-02T00:07:43.690Z,59.54
2018-04-02T00:08:15.313Z,59.53
2018-04-02T00:08:46.940Z,59.52
2018-04-02T00:09:18.618Z,59.53
2018-04-02T00:09:50.242Z,59.56
2018-04-02T00:10:21.876Z,59.61
2018-04-02T00:10:53.525Z,59.58
2018-04-02T00:11:25.162Z,59.62
2018-04-02T00:11:56.810Z,59.69
2018-04-02T00:12:28.444Z,59.70
2018-04-02T00:13:00.071Z,59.72
2018-04-02T00:13:31.699Z,59.78
2018-04-02T00:14:03.338Z,59.77
2018-04-02T00:14:34.980Z,59.82
2018-04-02T00:15:06.606Z,59.90
2018-04-02T00:15:38.230Z,59.92
2018-04-02T00:16:09.854Z,59.98
2018-04-02T00:16:41.482Z,59.81
2018-04-02T00:17:13.110Z,59.93
2018-04-02T00:17:44.793Z,59.86
2018-04-02T00:18:16.421Z,59.94
2018-04-02T00:18:48.050Z,59.98
2018-04-02T00:19:19.675Z,59.94
2018-04-02T00:19:51.298Z,59.86
2018-04-02T00:20:22.926Z,59.91
2018-04-02T00:20:54.546Z,59.87
2018-04-02T00:21:26.174Z,59.83
2018-04-02T00:21:57.802Z,59.94
2018-04-02T00:22:29.438Z,59.88
2018-04-02T00:23:01.106Z,59.83
2018-04-02T00:23:32.734Z,59.86
2018-04-02T00:24:04.393Z,59.80
2018-04-02T00:24:36.018Z,59.83
2018-04-02T00:25:07.649Z,59.82
2018-04-02T00:25:39.278Z,59.80
2018-04-02T00:26:10.906Z,59.74
2018-04-02T00:26:42.534Z,59.71
2018-04-02T00:27:14.174Z,59.71
2018-04-02T00:27:45.846Z,59.66
2018-04-02T00:28:17.470Z,59.58
2018-04-02T00:28:49.098Z,59.48
2018-04-02T00:29:20.722Z,59.33
2018-04-02T00:29:52.345Z,59.43
2018-04-02T00:30:23.970Z,59.19
2018-04-02T00:30:55.603Z,59.07
2018-04-02T00:31:27.230Z,58.97
2018-04-02T00:31:58.858Z,59.00
2018-04-02T00:32:30.499Z,58.82
2018-04-02T00:33:02.164Z,58.94
2018-04-02T00:33:33.799Z,58.81
2018-04-02T00:34:05.470Z,58.89
2018-04-02T00:34:37.095Z,58.81
2018-04-02T00:35:08.726Z,58.72
2018-04-02T00:35:40.350Z,58.72
2018-04-02T00:36:11.976Z,58.76
2018-04-02T00:36:43.598Z,58.60
2018-04-02T00:37:15.226Z,58.69
2018-04-02T00:37:46.859Z,58.76
2018-04-02T00:38:18.486Z,58.86
2018-04-02T00:38:50.153Z,58.75
2018-04-02T00:39:21.778Z,58.67
2018-04-02T00:39:53.401Z,59.01
2018-04-02T00:40:25.031Z,58.80
2018-04-02T00:40:56.654Z,58.82
2018-04-02T00:41:28.304Z,58.74
2018-04-02T00:41:59.934Z,58.89
2018-04-02T00:42:31.610Z,58.77
2018-04-02T00:43:03.239Z,58.69
2018-04-02T00:43:34.880Z,58.54
2018-04-02T00:44:06.518Z,58.80
2018-04-02T00:44:38.138Z,58.70
2018-04-02T00:45:09.762Z,58.77
2018-04-02T00:45:41.391Z,58.77
2018-04-02T00:46:13.025Z,58.65
2018-04-02T00:46:44.659Z,58.55
2018-04-02T00:47:16.292Z,58.68
2018-04-02T00:47:47.958Z,58.62
2018-04-02T00:48:19.582Z,58.48
2018-04-02T00:48:51.291Z,58.67
2018-04-02T00:49:22.905Z,58.66
2018-04-02T00:49:54.569Z,58.49
2018-04-02T00:50:26.199Z,58.57
2018-04-02T00:50:57.870Z,58.57
2018-04-02T00:51:30.090Z,58.53
2018-04-02T00:52:01.715Z,58.48
2018-04-02T00:52:33.342Z,58.63
2018-04-02T00:53:05.007Z,58.56
2018-04-02T00:53:36.634Z,58.51
2018-04-02T00:54:08.264Z,58.63
2018-04-02T00:54:39.907Z,58.58
2018-04-02T00:55:11.534Z,58.71
2018-04-02T00:55:43.210Z,58.49
2018-04-02T00:56:14.833Z,58.49
2018-04-02T00:56:46.466Z,58.46
2018-04-02T00:57:18.098Z,58.55
2018-04-02T00:57:49.731Z,58.54
2018-04-02T00:58:21.405Z,58.72
2018-04-02T00:58:53.029Z,58.70
2018-04-02T00:59:24.653Z,58.71
2018-04-02T00:59:56.289Z,58.71
2018-04-02T01:00:27.918Z,58.74
2018-04-02T01:00:59.558Z,58.85
2018-04-02T01:01:31.198Z,58.86
2018-04-02T01:02:02.822Z,59.05
2018-04-02T01:02:34.446Z,58.86
2018-04-02T01:03:06.070Z,58.99
2018-04-02T01:03:37.733Z,59.14
2018-04-02T01:04:09.390Z,59.00
2018-04-02T01:04:41.014Z,59.12
2018-04-02T01:05:12.646Z,59.00
2018-04-02T01:05:44.336Z,59.02
2018-04-02T01:06:15.996Z,59.11
2018-04-02T01:06:47.617Z,59.04
2018-04-02T01:07:19.242Z,59.24
2018-04-02T01:07:50.916Z,59.13
2018-04-02T01:08:22.541Z,59.28
2018-04-02T01:08:54.183Z,59.39
2018-04-02T01:09:25.813Z,59.30
2018-04-02T01:09:57.446Z,59.32
2018-04-02T01:10:29.074Z,59.41
2018-04-02T01:11:00.702Z,59.52
2018-04-02T01:11:32.325Z,59.54
2018-04-02T01:12:03.946Z,59.64
2018-04-02T01:12:35.570Z,59.73
2018-04-02T01:13:07.237Z,59.84
2018-04-02T01:13:38.866Z,59.76
2018-04-02T01:14:10.494Z,59.92
2018-04-02T01:14:42.230Z,60.03
2018-04-02T01:15:13.853Z,60.02
2018-04-02T01:15:45.478Z,60.07
2018-04-02T01:16:17.104Z,60.00
2018-04-02T01:16:48.774Z,60.18
2018-04-02T01:17:20.415Z,60.11
2018-04-02T01:17:52.038Z,60.20
2018-04-02T01:18:23.672Z,60.17
2018-04-02T01:18:55.299Z,60.11
2018-04-02T01:19:26.931Z,60.11
2018-04-02T01:19:58.559Z,60.33
2018-04-02T01:20:30.187Z,60.35
2018-04-02T01:21:01.819Z,60.21
2018-04-02T01:21:33.454Z,60.30
2018-04-02T01:22:05.150Z,60.31
2018-04-02T01:22:36.781Z,60.29
2018-04-02T01:23:08.406Z,60.20
2018-04-02T01:23:40.031Z,60.36
2018-04-02T01:24:11.659Z,60.34
2018-04-02T01:24:43.287Z,60.25
2018-04-02T01:25:14.910Z,60.25
2018-04-02T01:25:46.550Z,60.27
2018-04-02T01:26:18.173Z,60.29
2018-04-02T01:26:49.802Z,60.30
2018-04-02T01:27:21.483Z,60.33
2018-04-02T01:27:53.119Z,60.40
2018-04-02T01:28:24.742Z,60.33
2018-04-02T01:28:56.373Z,60.40
2018-04-02T01:29:28.018Z,60.38
2018-04-02T01:29:59.647Z,60.38
2018-04-02T01:30:31.298Z,60.42
2018-04-02T01:31:02.927Z,60.45
2018-04-02T01:31:34.550Z,60.39
2018-04-02T01:32:06.178Z,60.41
2018-04-02T01:32:37.850Z,60.41
2018-04-02T01:33:09.482Z,60.31
2018-04-02T01:33:41.166Z,60.40
2018-04-02T01:34:12.791Z,60.40
2018-04-02T01:34:44.414Z,60.37
2018-04-02T01:35:16.038Z,60.41
2018-04-02T01:35:47.666Z,60.42
2018-04-02T01:36:19.291Z,60.43
2018-04-02T01:36:50.926Z,60.40
2018-04-02T01:37:22.550Z,60.43
2018-04-02T01:37:54.178Z,60.43
2018-04-02T01:38:25.809Z,60.46
2018-04-02T01:38:57.473Z,60.48
2018-04-02T01:39:29.097Z,60.58
2018-04-02T01:40:00.722Z,60.68
2018-04-02T01:40:32.349Z,60.55
2018-04-02T01:41:03.973Z,60.48
2018-04-02T01:41:35.598Z,60.54
2018-04-02T01:42:07.234Z,60.54
2018-04-02T01:42:38.867Z,60.53
2018-04-02T01:43:10.490Z,60.44
2018-04-02T01:43:42.119Z,60.48
2018-04-02T01:44:13.785Z,60.48
2018-04-02T01:44:45.415Z,60.49
2018-04-02T01:45:17.115Z,60.39
2018-04-02T01:45:48.746Z,60.39
2018-04-02T01:46:20.374Z,60.34
2018-04-02T01:46:52.015Z,60.39
2018-04-02T01:47:23.646Z,60.38
2018-04-02T01:47:55.278Z,60.37
2018-04-02T01:48:26.903Z,60.35
2018-04-02T01:48:58.525Z,60.43
2018-04-02T01:49:30.151Z,60.25
2018-04-02T01:50:01.824Z,60.25
2018-04-02T01:50:33.467Z,60.20
2018-04-02T01:51:05.090Z,60.12
2018-04-02T01:51:36.714Z,59.99
2018-04-02T01:52:08.342Z,59.87
2018-04-02T01:52:39.970Z,59.86
2018-04-02T01:53:11.594Z,59.65
2018-04-02T01:53:43.225Z,59.59
2018-04-02T01:54:14.851Z,59.57
2018-04-02T01:54:46.474Z,59.42
2018-04-02T01:55:18.159Z,59.56
2018-04-02T01:55:49.786Z,59.38
2018-04-02T01:56:21.410Z,59.45
2018-04-02T01:56:53.332Z,59.20
2018-04-02T01:57:24.963Z,59.35
2018-04-02T01:57:56.593Z,59.26
2018-04-02T01:58:28.218Z,59.23
2018-04-02T01:58:59.855Z,59.20
2018-04-02T01:59:31.486Z,59.08
2018-04-02T02:00:03.115Z,59.05
2018-04-02T02:00:34.742Z,59.14
2018-04-02T02:01:06.370Z,59.08
2018-04-02T02:01:37.998Z,59.05
2018-04-02T02:02:09.643Z,59.11
2018-04-02T02:02:41.288Z,59.03
2018-04-02T02:03:12.925Z,58.86
2018-04-02T02:03:44.550Z,58.84
2018-04-02T02:04:16.214Z,58.91
2018-04-02T02:04:47.848Z,58.77
2018-04-02T02:05:19.478Z,58.85
2018-04-02T02:05:51.126Z,58.82
2018-04-02T02:06:22.772Z,58.86
2018-04-02T02:06:54.438Z,58.86
2018-04-02T02:07:26.061Z,58.73
2018-04-02T02:07:57.694Z,58.68
2018-04-02T02:08:29.318Z,58.67
2018-04-02T02:09:00.947Z,58.85
2018-04-02T02:09:32.582Z,58.80
2018-04-02T02:10:04.206Z,58.82
2018-04-02T02:10:35.834Z,58.95
2018-04-02T02:11:07.458Z,59.02
2018-04-02T02:11:39.081Z,58.92
2018-04-02T02:12:10.754Z,59.03
2018-04-02T02:12:42.377Z,58.91
2018-04-02T02:13:14.007Z,59.19
2018-04-02T02:13:45.635Z,58.98
2018-04-02T02:14:17.302Z,59.01
2018-04-02T02:14:48.926Z,58.99
2018-04-02T02:15:20.549Z,59.09
2018-04-02T02:15:52.174Z,58.97
2018-04-02T02:16:23.802Z,58.88
2018-04-02T02:16:55.431Z,59.55
2018-04-02T02:17:27.160Z,59.13
2018-04-02T02:17:58.785Z,58.76
2018-04-02T02:18:30.467Z,59.06
2018-04-02T02:19:02.099Z,59.00
2018-04-02T02:19:33.730Z,59.15
2018-04-02T02:20:05.349Z,59.00
2018-04-02T02:20:36.994Z,58.87
2018-04-02T02:21:08.618Z,58.98
2018-04-02T02:21:40.242Z,58.73
2018-04-02T02:22:11.866Z,58.72
2018-04-02T02:22:43.494Z,58.76
2018-04-02T02:23:15.118Z,58.75
2018-04-02T02:23:46.794Z,58.69
2018-04-02T02:24:18.458Z,58.70
2018-04-02T02:24:50.090Z,58.77
2018-04-02T02:25:21.714Z,58.72
2018-04-02T02:25:53.338Z,58.74
2018-04-02T02:26:24.986Z,58.77
2018-04-02T02:26:56.615Z,58.83
2018-04-02T02:27:28.241Z,58.78
2018-04-02T02:27:59.870Z,58.77
2018-04-02T02:28:31.549Z,58.79
2018-04-02T02:29:03.154Z,58.77
2018-04-02T02:29:34.821Z,58.79
2018-04-02T02:30:06.447Z,58.96
2018-04-02T02:30:38.124Z,58.88
2018-04-02T02:31:09.747Z,58.90
2018-04-02T02:31:41.378Z,58.88
2018-04-02T02:32:13.011Z,58.87
2018-04-02T02:32:44.641Z,59.00
2018-04-02T02:33:16.271Z,59.11
2018-04-02T02:33:47.907Z,59.26
2018-04-02T02:34:19.536Z,59.32
2018-04-02T02:34:51.157Z,59.34
2018-04-02T02:35:22.783Z,59.27
2018-04-02T02:35:54.406Z,59.35
2018-04-02T02:36:26.032Z,59.45
2018-04-02T02:36:57.662Z,59.42
2018-04-02T02:37:29.295Z,59.41
2018-04-02T02:38:00.921Z,59.45
2018-04-02T02:38:32.551Z,59.48
2018-04-02T02:39:04.195Z,59.56
2018-04-02T02:39:35.877Z,59.66
2018-04-02T02:40:07.516Z,59.67
2018-04-02T02:40:39.145Z,59.69
2018-04-02T02:41:10.772Z,59.76
2018-04-02T02:41:42.398Z,59.95
2018-04-02T02:42:14.044Z,59.93
2018-04-02T02:42:45.694Z,59.97
2018-04-02T02:43:17.338Z,60.05
2018-04-02T02:43:48.974Z,60.17
2018-04-02T02:44:20.607Z,60.24
2018-04-02T02:44:52.253Z,60.22
2018-04-02T02:45:23.891Z,60.23
2018-04-02T02:45:55.519Z,60.22
2018-04-02T02:46:27.142Z,60.15
2018-04-02T02:46:58.774Z,60.21
2018-04-02T02:47:30.423Z,60.40
2018-04-02T02:48:02.061Z,60.21
2018-04-02T02:48:33.687Z,60.28
2018-04-02T02:49:05.328Z,60.26
2018-04-02T02:49:36.953Z,60.50
2018-04-02T02:50:08.618Z,60.50
2018-04-02T02:50:40.242Z,60.51
2018-04-02T02:51:11.866Z,60.50
2018-04-02T02:51:43.491Z,60.59
2018-04-02T02:52:15.122Z,60.47
2018-04-02T02:52:46.754Z,60.54
2018-04-02T02:53:18.382Z,60.64
2018-04-02T02:53:50.015Z,60.58
2018-04-02T02:54:21.682Z,60.64
2018-04-02T02:54:53.306Z,60.59
2018-04-02T02:55:24.938Z,60.65
2018-04-02T02:55:56.575Z,60.61
2018-04-02T02:56:28.198Z,60.61
2018-04-02T02:56:59.867Z,60.62
2018-04-02T02:57:31.494Z,60.66
2018-04-02T02:58:03.122Z,60.57
2018-04-02T02:58:34.750Z,60.56
2018-04-02T02:59:06.379Z,60.55
2018-04-02T02:59:38.006Z,60.54
2018-04-02T03:00:09.642Z,60.58
2018-04-02T03:00:41.265Z,60.58
2018-04-02T03:01:12.946Z,60.56
2018-04-02T03:01:44.575Z,60.52
2018-04-02T03:02:16.207Z,60.58
2018-04-02T03:02:47.834Z,60.53
2018-04-02T03:03:19.467Z,60.47
2018-04-02T03:03:51.094Z,60.36
2018-04-02T03:04:22.718Z,60.35
2018-04-02T03:04:54.363Z,60.32
2018-04-02T03:05:26.007Z,60.31
2018-04-02T03:05:57.639Z,60.29
2018-04-02T03:06:29.307Z,60.17
2018-04-02T03:07:00.940Z,60.11
2018-04-02T03:07:32.624Z,60.17
2018-04-02T03:08:04.246Z,60.10
2018-04-02T03:08:35.871Z,60.06
2018-04-02T03:09:07.503Z,60.03
2018-04-02T03:09:39.139Z,60.18
2018-04-02T03:10:10.771Z,60.05
2018-04-02T03:10:42.395Z,60.08
2018-04-02T03:11:14.020Z,60.07
2018-04-02T03:11:45.643Z,59.96
2018-04-02T03:12:17.270Z,59.98
2018-04-02T03:12:48.938Z,60.03
2018-04-02T03:13:20.568Z,59.97
2018-04-02T03:13:52.227Z,60.11
2018-04-02T03:14:23.854Z,60.08
2018-04-02T03:14:55.478Z,60.02
2018-04-02T03:15:27.102Z,59.98
2018-04-02T03:15:58.729Z,60.19
2018-04-02T03:16:30.358Z,60.20
2018-04-02T03:17:01.982Z,60.02
2018-04-02T03:17:33.662Z,60.12
2018-04-02T03:18:05.295Z,59.90
2018-04-02T03:18:36.927Z,59.97
2018-04-02T03:19:08.549Z,59.93
2018-04-02T03:19:40.170Z,59.88
2018-04-02T03:20:11.798Z,59.95
2018-04-02T03:20:43.423Z,59.90
2018-04-02T03:21:15.049Z,59.78
2018-04-02T03:21:46.674Z,59.88
2018-04-02T03:22:18.303Z,59.83
2018-04-02T03:22:49.978Z,59.85
2018-04-02T03:23:21.607Z,59.83
2018-04-02T03:23:53.234Z,59.72
2018-04-02T03:24:24.862Z,59.84
2018-04-02T03:24:56.490Z,59.82
2018-04-02T03:25:28.110Z,59.96
2018-04-02T03:25:59.778Z,59.81
2018-04-02T03:26:31.402Z,60.15
2018-04-02T03:27:03.026Z,59.79
2018-04-02T03:27:34.649Z,59.93
2018-04-02T03:28:06.278Z,59.89
2018-04-02T03:28:37.902Z,59.98
2018-04-02T03:29:09.530Z,59.99
2018-04-02T03:29:41.158Z,59.94
2018-04-02T03:30:12.795Z,59.88
2018-04-02T03:30:44.423Z,59.78
2018-04-02T03:31:16.047Z,59.80
2018-04-02T03:31:47.671Z,59.83
2018-04-02T03:32:19.298Z,59.72
2018-04-02T03:32:50.922Z,59.75
2018-04-02T03:33:22.559Z,59.75
2018-04-02T03:33:54.190Z,59.74
2018-04-02T03:34:25.909Z,59.77
2018-04-02T03:34:57.566Z,59.69
2018-04-02T03:35:29.186Z,59.74
2018-04-02T03:36:00.845Z,59.57
2018-04-02T03:36:32.479Z,59.74
2018-04-02T03:37:04.113Z,59.71
2018-04-02T03:37:35.738Z,59.73
2018-04-02T03:38:07.374Z,59.79
2018-04-02T03:38:39.002Z,59.72
2018-04-02T03:39:10.626Z,59.83
2018-04-02T03:39:42.254Z,59.75
2018-04-02T03:40:13.918Z,59.80
2018-04-02T03:40:45.544Z,59.72
2018-04-02T03:41:17.213Z,59.67
2018-04-02T03:41:48.838Z,59.79
2018-04-02T03:42:20.466Z,59.91
2018-04-02T03:42:52.090Z,59.86
2018-04-02T03:43:23.715Z,60.03
2018-04-02T03:43:55.342Z,60.07
2018-04-02T03:44:26.970Z,60.02
2018-04-02T03:44:58.598Z,60.05
2018-04-02T03:45:30.271Z,60.00
2018-04-02T03:46:01.899Z,60.10
2018-04-02T03:46:33.525Z,60.05
2018-04-02T03:47:05.151Z,60.12
2018-04-02T03:47:36.775Z,60.34
2018-04-02T03:48:08.402Z,60.26
2018-04-02T03:48:40.027Z,60.28
2018-04-02T03:49:11.650Z,60.29
2018-04-02T03:49:43.350Z,60.26
2018-04-02T03:50:14.978Z,60.41
2018-04-02T03:50:46.602Z,60.41
2018-04-02T03:51:18.234Z,60.41
2018-04-02T03:51:49.866Z,60.40
2018-04-02T03:52:21.489Z,60.40
2018-04-02T03:52:53.110Z,60.50
2018-04-02T03:53:24.763Z,60.56
2018-04-02T03:53:56.395Z,60.84
2018-04-02T03:54:28.023Z,60.86
2018-04-02T03:54:59.727Z,60.96
2018-04-02T03:55:31.407Z,60.90
2018-04-02T03:56:03.038Z,60.92
2018-04-02T03:56:34.665Z,60.92
2018-04-02T03:57:06.339Z,60.97
2018-04-02T03:57:37.967Z,60.93
2018-04-02T03:58:09.592Z,61.01
2018-04-02T03:58:41.222Z,60.96
2018-04-02T03:59:12.846Z,61.08
2018-04-02T03:59:44.470Z,60.98
2018-04-02T04:00:16.138Z,60.98
2018-04-02T04:00:47.761Z,61.02
2018-04-02T04:01:19.391Z,61.07
2018-04-02T04:01:51.022Z,60.95
2018-04-02T04:02:22.715Z,61.09
2018-04-02T04:02:54.355Z,60.98
2018-04-02T04:03:25.978Z,61.02
2018-04-02T04:03:57.602Z,61.15
2018-04-02T04:04:29.226Z,61.05
2018-04-02T04:05:00.894Z,61.15
2018-04-02T04:05:32.523Z,61.10
2018-04-02T04:06:04.146Z,61.12
2018-04-02T04:06:35.830Z,61.15
2018-04-02T04:07:07.458Z,61.35
2018-04-02T04:07:39.083Z,61.30
2018-04-02T04:08:10.705Z,61.33
2018-04-02T04:08:42.335Z,61.34
2018-04-02T04:09:13.961Z,61.38
2018-04-02T04:09:45.590Z,61.37
2018-04-02T04:10:17.218Z,61.37
2018-04-02T04:10:48.846Z,61.44
2018-04-02T04:11:20.495Z,61.40
2018-04-02T04:11:52.163Z,61.46
2018-04-02T04:12:23.795Z,61.45
2018-04-02T04:12:55.419Z,61.59
2018-04-02T04:13:27.043Z,61.61
2018-04-02T04:13:58.665Z,61.61
2018-04-02T04:14:30.299Z,61.60
2018-04-02T04:15:01.934Z,61.64
2018-04-02T04:15:33.562Z,61.57
2018-04-02T04:16:05.185Z,61.56
2018-04-02T04:16:36.810Z,61.55
2018-04-02T04:17:08.447Z,61.53
2018-04-02T04:17:40.082Z,61.51
2018-04-02T04:18:11.707Z,61.51
2018-04-02T04:18:43.335Z,61.47
2018-04-02T04:19:14.966Z,61.53
2018-04-02T04:19:46.593Z,61.50
2018-04-02T04:20:18.278Z,61.50
2018-04-02T04:20:49.907Z,61.50
2018-04-02T04:21:21.538Z,61.48
2018-04-02T04:21:53.172Z,61.49
2018-04-02T04:22:24.798Z,61.60
2018-04-02T04:22:56.418Z,61.60
2018-04-02T04:23:28.041Z,61.50
2018-04-02T04:23:59.670Z,61.52
2018-04-02T04:24:31.290Z,61.53
2018-04-02T04:25:02.918Z,61.50
2018-04-02T04:25:34.591Z,61.36
2018-04-02T04:26:06.222Z,61.32
2018-04-02T04:26:37.873Z,61.24
2018-04-02T04:27:09.517Z,61.26
2018-04-02T04:27:41.146Z,61.29
2018-04-02T04:28:12.811Z,61.18
2018-04-02T04:28:44.439Z,60.95
2018-04-02T04:29:16.067Z,60.89
2018-04-02T04:29:47.695Z,60.99
2018-04-02T04:30:19.313Z,60.89
2018-04-02T04:30:50.944Z,60.80
2018-04-02T04:31:22.575Z,60.71
2018-04-02T04:31:54.198Z,60.82
2018-04-02T04:32:25.832Z,60.62
2018-04-02T04:32:57.494Z,60.52
2018-04-02T04:33:29.114Z,60.60
2018-04-02T04:34:00.758Z,60.53
2018-04-02T04:34:32.390Z,60.47
2018-04-02T04:35:04.023Z,60.45
2018-04-02T04:35:35.694Z,60.56
2018-04-02T04:36:07.322Z,60.46
2018-04-02T04:36:38.951Z,60.47
2018-04-02T04:37:10.579Z,60.42
2018-04-02T04:37:42.267Z,60.39
2018-04-02T04:38:13.907Z,60.39
2018-04-02T04:38:45.534Z,60.43
2018-04-02T04:39:17.157Z,60.41
2018-04-02T04:39:48.782Z,60.50
2018-04-02T04:40:20.472Z,60.31
2018-04-02T04:40:52.067Z,60.34
2018-04-02T04:41:23.699Z,60.19
2018-04-02T04:41:55.335Z,60.16
2018-04-02T04:42:26.967Z,60.25
2018-04-02T04:42:58.633Z,60.28
2018-04-02T04:43:30.315Z,60.35
2018-04-02T04:44:01.942Z,60.14
2018-04-02T04:44:33.569Z,60.12
2018-04-02T04:45:05.238Z,60.13
2018-04-02T04:45:36.861Z,60.09
2018-04-02T04:46:08.491Z,60.04
2018-04-02T04:46:40.114Z,59.86
2018-04-02T04:47:11.738Z,59.84
2018-04-02T04:47:43.427Z,59.81
2018-04-02T04:48:15.054Z,59.79
2018-04-02T04:48:46.673Z,59.76
2018-04-02T04:49:18.302Z,59.67
2018-04-02T04:49:49.925Z,59.67
2018-04-02T04:50:21.557Z,59.71
2018-04-02T04:50:53.198Z,59.68
2018-04-02T04:51:24.828Z,59.59
2018-04-02T04:51:56.454Z,59.72
2018-04-02T04:52:28.077Z,59.65
2018-04-02T04:52:59.710Z,59.61
2018-04-02T04:53:31.334Z,59.54
2018-04-02T04:54:02.954Z,59.44
2018-04-02T04:54:34.579Z,59.35
2018-04-02T04:55:06.203Z,59.35
2018-04-02T04:55:37.834Z,59.42
2018-04-02T04:56:09.453Z,59.42
2018-04-02T04:56:41.074Z,59.41
2018-04-02T04:57:12.703Z,59.33
2018-04-02T04:57:44.334Z,59.26
2018-04-02T04:58:15.998Z,59.34
2018-04-02T04:58:47.621Z,59.22
2018-04-02T04:59:19.247Z,59.30
2018-04-02T04:59:50.870Z,59.31
2018-04-02T05:00:22.550Z,59.25
2018-04-02T05:00:54.173Z,59.36
2018-04-02T05:01:25.806Z,59.33
2018-04-02T05:01:57.434Z,59.29
2018-04-02T05:02:29.078Z,59.28
2018-04-02T05:03:00.705Z,59.40
2018-04-02T05:03:32.334Z,59.41
2018-04-02T05:04:03.954Z,59.60
2018-04-02T05:04:35.578Z,59.46
2018-04-02T05:05:07.202Z,59.50
2018-04-02T05:05:38.877Z,59.40
2018-04-02T05:06:10.498Z,59.59
2018-04-02T05:06:42.125Z,59.48
2018-04-02T05:07:13.759Z,59.51
2018-04-02T05:07:45.395Z,59.50
2018-04-02T05:08:17.019Z,59.46
2018-04-02T05:08:48.651Z,59.52
2018-04-02T05:09:20.286Z,59.49
2018-04-02T05:09:51.914Z,59.42
2018-04-02T05:10:23.538Z,59.39
2018-04-02T05:10:55.162Z,59.51
2018-04-02T05:11:26.791Z,59.39
2018-04-02T05:11:58.418Z,59.46
2018-04-02T05:12:30.046Z,59.46
2018-04-02T05:13:01.669Z,59.44
2018-04-02T05:13:33.294Z,59.40
2018-04-02T05:14:04.917Z,59.44
2018-04-02T05:14:36.545Z,59.55
2018-04-02T05:15:08.215Z,59.53
2018-04-02T05:15:39.894Z,59.53
2018-04-02T05:16:11.522Z,59.57
2018-04-02T05:16:43.178Z,59.69
2018-04-02T05:17:14.806Z,59.66
2018-04-02T05:17:46.434Z,59.65
2018-04-02T05:18:18.053Z,59.67
2018-04-02T05:18:49.726Z,59.70
2018-04-02T05:19:21.354Z,59.88
2018-04-02T05:19:52.985Z,59.92
2018-04-02T05:20:24.614Z,59.99
2018-04-02T05:20:56.239Z,60.11
2018-04-02T05:21:27.881Z,60.01
2018-04-02T05:21:59.501Z,59.88
2018-04-02T05:22:31.126Z,60.02
2018-04-02T05:23:02.749Z,60.16
2018-04-02T05:23:34.406Z,60.49
2018-04-02T05:24:06.038Z,60.43
2018-04-02T05:24:37.662Z,60.55
2018-04-02T05:25:09.285Z,60.65
2018-04-02T05:25:40.914Z,60.84
2018-04-02T05:26:12.538Z,60.88
2018-04-02T05:26:44.201Z,61.03
2018-04-02T05:27:15.875Z,60.97
2018-04-02T05:27:47.526Z,60.90
2018-04-02T05:28:19.150Z,61.33
2018-04-02T05:28:50.789Z,61.11
2018-04-02T05:29:22.418Z,60.59
2018-04-02T05:29:54.050Z,60.66
2018-04-02T05:30:25.674Z,60.37
2018-04-02T05:30:57.301Z,60.44
2018-04-02T05:31:29.582Z,60.52
2018-04-02T05:32:01.206Z,60.32
2018-04-02T05:32:32.890Z,60.10
2018-04-02T05:33:04.518Z,60.56
2018-04-02T05:33:36.146Z,60.62
2018-04-02T05:34:07.769Z,60.55
2018-04-02T05:34:39.393Z,60.72
2018-04-02T05:35:11.025Z,60.71
2018-04-02T05:35:42.646Z,60.90
2018-04-02T05:36:14.278Z,60.95
2018-04-02T05:36:45.911Z,60.78
2018-04-02T05:37:17.542Z,60.91
2018-04-02T05:37:49.214Z,60.94
2018-04-02T05:38:20.838Z,60.98
2018-04-02T05:38:52.462Z,60.99
2018-04-02T05:39:24.086Z,60.97
2018-04-02T05:39:55.713Z,60.97
2018-04-02T05:40:27.342Z,60.99
2018-04-02T05:40:58.970Z,61.00
2018-04-02T05:41:30.599Z,61.14
2018-04-02T05:42:02.253Z,61.02
2018-04-02T05:42:33.882Z,61.89
2018-04-02T05:43:05.557Z,61.31
2018-04-02T05:43:37.178Z,61.22
2018-04-02T05:44:08.798Z,61.15
2018-04-02T05:44:40.422Z,61.27
2018-04-02T05:45:12.082Z,61.12
2018-04-02T05:45:43.706Z,61.18
2018-04-02T05:46:15.330Z,61.26
2018-04-02T05:46:46.954Z,61.30
2018-04-02T05:47:18.586Z,61.31
2018-04-02T05:47:50.209Z,61.24
2018-04-02T05:48:21.873Z,61.31
2018-04-02T05:48:53.508Z,61.28
2018-04-02T05:49:25.143Z,61.32
2018-04-02T05:49:56.971Z,61.26
2018-04-02T05:50:28.598Z,61.12
2018-04-02T05:51:00.304Z,61.09
2018-04-02T05:51:31.910Z,60.94
2018-04-02T05:52:03.566Z,60.92
2018-04-02T05:52:35.190Z,60.67
2018-04-02T05:53:06.814Z,60.63
2018-04-02T05:53:38.442Z,60.55
2018-04-02T05:54:10.068Z,60.54
2018-04-02T05:54:41.690Z,60.59
2018-04-02T05:55:13.357Z,60.44
2018-04-02T05:55:44.986Z,60.65
2018-04-02T05:56:16.613Z,60.57
2018-04-02T05:56:48.278Z,60.81
2018-04-02T05:57:19.911Z,60.69
2018-04-02T05:57:51.554Z,60.75
2018-04-02T05:58:23.177Z,60.69
2018-04-02T05:58:54.802Z,60.56
2018-04-02T05:59:26.430Z,60.77
2018-04-02T05:59:58.063Z,60.58
2018-04-02T06:00:29.686Z,60.59
2018-04-02T06:01:01.314Z,60.71
2018-04-02T06:01:32.943Z,60.60
2018-04-02T06:02:04.592Z,60.64
2018-04-02T06:02:36.222Z,60.48
2018-04-02T06:03:07.846Z,60.60
2018-04-02T06:03:39.514Z,60.59
2018-04-02T06:04:11.149Z,60.52
2018-04-02T06:04:42.769Z,60.42
2018-04-02T06:05:14.459Z,60.34
2018-04-02T06:05:46.052Z,60.56
2018-04-02T06:06:17.718Z,60.60
2018-04-02T06:06:49.345Z,60.41
2018-04-02T06:07:21.014Z,60.38
2018-04-02T06:07:52.642Z,60.28
2018-04-02T06:08:24.266Z,60.20
2018-04-02T06:08:55.894Z,60.24
2018-04-02T06:09:27.522Z,60.18
2018-04-02T06:09:59.146Z,60.19
2018-04-02T06:10:30.800Z,60.08
2018-04-02T06:11:02.452Z,60.10
2018-04-02T06:11:34.100Z,60.08
2018-04-02T06:12:05.770Z,59.96
2018-04-02T06:12:37.399Z,59.95
2018-04-02T06:13:09.029Z,59.95
2018-04-02T06:13:40.650Z,59.91
2018-04-02T06:14:12.283Z,59.89
2018-04-02T06:14:43.905Z,59.90
2018-04-02T06:15:15.534Z,59.90
2018-04-02T06:15:47.159Z,59.87
2018-04-02T06:16:18.787Z,60.06
2018-04-02T06:16:50.419Z,59.86
2018-04-02T06:17:22.087Z,59.92
2018-04-02T06:17:53.716Z,59.92
2018-04-02T06:18:25.346Z,59.89
2018-04-02T06:18:56.970Z,59.85
2018-04-02T06:19:28.593Z,59.84
2018-04-02T06:20:00.222Z,59.80
2018-04-02T06:20:31.889Z,59.87
2018-04-02T06:21:03.509Z,59.80
2018-04-02T06:21:35.129Z,59.86
2018-04-02T06:22:06.754Z,59.83
2018-04-02T06:22:38.379Z,59.73
2018-04-02T06:23:10.010Z,59.79
2018-04-02T06:23:41.635Z,59.77
2018-04-02T06:24:13.294Z,59.76
2018-04-02T06:24:44.922Z,59.89
2018-04-02T06:25:16.546Z,59.84
2018-04-02T06:25:48.165Z,59.88
2018-04-02T06:26:19.812Z,59.83
2018-04-02T06:26:51.434Z,59.82
2018-04-02T06:27:23.063Z,59.78
2018-04-02T06:27:54.734Z,59.76
2018-04-02T06:28:26.367Z,59.81
2018-04-02T06:28:57.998Z,59.76
2018-04-02T06:29:29.627Z,59.83
2018-04-02T06:30:01.254Z,59.88
2018-04-02T06:30:32.882Z,59.87
2018-04-02T06:31:04.506Z,59.85
2018-04-02T06:31:36.145Z,59.93
2018-04-02T06:32:07.769Z,59.79
2018-04-02T06:32:39.391Z,59.86
2018-04-02T06:33:11.062Z,59.81
2018-04-02T06:33:42.690Z,59.84
2018-04-02T06:34:14.318Z,59.88
2018-04-02T06:34:45.941Z,59.81
2018-04-02T06:35:18.581Z,59.83
2018-04-02T06:35:50.219Z,59.95
2018-04-02T06:36:21.855Z,59.87
2018-04-02T06:36:53.545Z,60.10
2018-04-02T06:37:25.158Z,59.93
2018-04-02T06:37:56.830Z,59.87
2018-04-02T06:38:28.454Z,59.90
2018-04-02T06:39:00.078Z,59.99
2018-04-02T06:39:31.702Z,60.08
2018-04-02T06:40:03.334Z,60.02
2018-04-02T06:40:34.966Z,59.96
2018-04-02T06:41:06.586Z,59.98
2018-04-02T06:41:38.282Z,59.99
2018-04-02T06:42:09.906Z,60.14
2018-04-02T06:42:41.538Z,60.03
2018-04-02T06:43:13.167Z,59.96
2018-04-02T06:43:44.831Z,59.97
2018-04-02T06:44:16.511Z,60.06
2018-04-02T06:44:48.175Z,60.15
2018-04-02T06:45:19.810Z,60.05
2018-04-02T06:45:51.437Z,60.05
2018-04-02T06:46:23.062Z,60.05
2018-04-02T06:46:54.691Z,60.03
2018-04-02T06:47:26.318Z,60.17